createdAt,value
2024-03-02T00:00:56.485Z,67.67
2024-03-02T00:03:26.246Z,67.27
2024-03-02T00:05:57.560Z,66.15
2024-03-02T00:08:27.784Z,66.67
2024-03-02T00:11:02.299Z,67.57
2024-03-02T00:13:32.124Z,68.34
2024-03-02T00:16:01.965Z,67.75
2024-03-02T00:18:36.216Z,66.82
2024-03-02T00:21:05.530Z,67.01
2024-03-02T00:23:36.337Z,66.55
2024-03-02T00:26:06.236Z,66.83
2024-03-02T00:28:37.952Z,66.92
2024-03-02T00:31:08.810Z,66.41
2024-03-02T00:33:41.051Z,66.66
2024-03-02T00:36:10.829Z,67.82
2024-03-02T00:38:46.548Z,67.09
2024-03-02T00:41:21.607Z,67.76
2024-03-02T00:43:57.340Z,67.63
2024-03-02T00:46:27.413Z,66.88
2024-03-02T00:48:57.256Z,67.63
2024-03-02T00:51:27.196Z,66.09
2024-03-02T00:54:05.667Z,67.38
2024-03-02T00:56:36.148Z,67.79
2024-03-02T00:59:12.030Z,65.94
2024-03-02T01:01:43.539Z,66.02
2024-03-02T01:04:13.162Z,67.21
2024-03-02T01:06:42.026Z,67.06
2024-03-02T01:09:14.623Z,66.62
2024-03-02T01:11:43.754Z,67.47
2024-03-02T01:14:12.635Z,66.78
2024-03-02T01:16:43.251Z,66.32
2024-03-02T01:19:14.455Z,67.63
2024-03-02T01:21:51.678Z,66.76
2024-03-02T01:24:21.204Z,66.79
2024-03-02T01:26:50.146Z,66.32
2024-03-02T01:29:19.574Z,64.93
2024-03-02T01:31:49.720Z,65.39
2024-03-02T01:34:18.362Z,64.64
2024-03-02T01:36:47.122Z,64.23
2024-03-02T01:39:16.248Z,64.78
2024-03-02T01:41:45.374Z,64.78
2024-03-02T01:44:14.466Z,62.95
2024-03-02T01:46:46.574Z,63.57
2024-03-02T01:49:17.813Z,62.50
2024-03-02T01:51:47.473Z,63.12
2024-03-02T01:54:16.620Z,63.58
2024-03-02T01:56:45.423Z,62.17
2024-03-02T01:59:15.311Z,63.61
2024-03-02T02:01:47.400Z,64.00
2024-03-02T02:04:17.999Z,63.88
2024-03-02T02:06:47.117Z,64.21
2024-03-02T02:09:16.175Z,65.09
2024-03-02T02:11:45.267Z,63.55
2024-03-02T02:14:14.533Z,64.66
2024-03-02T02:16:50.615Z,65.02
2024-03-02T02:19:20.746Z,63.62
2024-03-02T02:21:51.614Z,62.60
2024-03-02T02:24:20.564Z,63.32
2024-03-02T02:26:52.088Z,63.56
2024-03-02T02:29:21.040Z,66.82
2024-03-02T02:31:51.070Z,65.94
2024-03-02T02:34:20.420Z,63.62
2024-03-02T02:36:48.822Z,64.33
2024-03-02T02:39:19.691Z,64.84
2024-03-02T02:41:49.369Z,65.10
2024-03-02T02:44:18.174Z,65.16
2024-03-02T02:46:46.610Z,65.41
2024-03-02T02:49:17.223Z,64.35
2024-03-02T02:51:46.361Z,64.96
2024-03-02T02:54:15.369Z,65.58
2024-03-02T02:56:45.198Z,64.13
2024-03-02T02:59:16.318Z,63.81
2024-03-02T03:01:45.720Z,63.76
2024-03-02T03:04:14.335Z,63.92
2024-03-02T03:06:43.409Z,63.57
2024-03-02T03:09:17.040Z,63.62
2024-03-02T03:11:47.560Z,62.79
2024-03-02T03:14:16.450Z,63.10
2024-03-02T03:16:45.275Z,63.49
2024-03-02T03:19:17.065Z,62.28
2024-03-02T03:21:46.173Z,62.85
2024-03-02T03:24:15.532Z,63.27
2024-03-02T03:26:44.232Z,63.38
2024-03-02T03:29:18.583Z,64.05
2024-03-02T03:31:48.197Z,63.98
2024-03-02T03:34:17.549Z,63.36
2024-03-02T03:36:46.506Z,64.07
2024-03-02T03:39:18.838Z,63.87
2024-03-02T03:41:47.824Z,63.94
2024-03-02T03:44:19.719Z,63.63
2024-03-02T03:46:50.028Z,64.20
2024-03-02T03:49:18.651Z,63.96
2024-03-02T03:51:47.813Z,63.51
2024-03-02T03:54:16.842Z,63.46
2024-03-02T03:56:45.410Z,63.68
2024-03-02T03:59:21.868Z,64.24
2024-03-02T04:01:52.524Z,63.84
2024-03-02T04:04:21.757Z,64.42
2024-03-02T04:06:50.465Z,64.14
2024-03-02T04:09:19.016Z,66.31
2024-03-02T04:11:48.274Z,65.12
2024-03-02T04:14:17.322Z,66.70
2024-03-02T04:16:46.419Z,65.62
2024-03-02T04:19:19.959Z,66.31
2024-03-02T04:21:48.852Z,66.27
2024-03-02T04:24:21.603Z,67.41
2024-03-02T04:26:50.291Z,68.75
2024-03-02T04:29:19.938Z,67.41
2024-03-02T04:31:48.850Z,67.60
2024-03-02T04:34:19.361Z,66.81
2024-03-02T04:36:48.382Z,69.13
2024-03-02T04:39:20.441Z,68.21
2024-03-02T04:41:49.428Z,68.22
2024-03-02T04:44:18.244Z,67.79
2024-03-02T04:46:46.770Z,67.17
2024-03-02T04:49:21.682Z,68.17
2024-03-02T04:51:51.267Z,67.96
2024-03-02T04:54:20.141Z,67.61
2024-03-02T04:56:51.902Z,68.07
2024-03-02T04:59:21.276Z,68.59
2024-03-02T05:01:50.431Z,68.55
2024-03-02T05:04:19.261Z,67.87
2024-03-02T05:06:56.991Z,68.18
2024-03-02T05:09:25.650Z,68.68
2024-03-02T05:12:31.659Z,68.15
2024-03-02T05:15:00.394Z,68.07
2024-03-02T05:17:29.192Z,67.71
2024-03-02T05:19:58.699Z,68.73
2024-03-02T05:22:36.900Z,67.34
2024-03-02T05:25:06.462Z,67.82
2024-03-02T05:27:35.475Z,67.11
2024-03-02T05:30:04.884Z,67.78
2024-03-02T05:32:33.700Z,67.83
2024-03-02T05:35:04.241Z,67.91
2024-03-02T05:37:34.664Z,68.51
2024-03-02T05:40:05.250Z,69.30
2024-03-02T05:42:34.567Z,69.60
2024-03-02T05:45:03.408Z,69.18
2024-03-02T05:47:32.448Z,68.56
2024-03-02T05:50:01.385Z,69.57
2024-03-02T05:52:32.508Z,69.08
2024-03-02T05:55:03.012Z,68.79
2024-03-02T05:57:48.814Z,69.20
2024-03-02T06:00:19.316Z,69.40
2024-03-02T06:02:49.361Z,70.29
2024-03-02T06:05:19.948Z,70.95
2024-03-02T06:07:49.002Z,71.31
2024-03-02T06:10:22.464Z,70.49
2024-03-02T06:12:51.696Z,70.85
2024-03-02T06:15:21.219Z,71.07
2024-03-02T06:17:50.482Z,71.77
2024-03-02T06:20:19.447Z,73.18
2024-03-02T06:22:48.395Z,72.50
2024-03-02T06:25:18.166Z,71.61
2024-03-02T06:27:48.722Z,71.66
2024-03-02T06:30:19.609Z,71.57
2024-03-02T06:32:48.934Z,71.79
2024-03-02T06:35:17.428Z,72.26
2024-03-02T06:37:46.287Z,70.85
2024-03-02T06:40:15.332Z,70.79
2024-03-02T06:42:44.670Z,70.00
2024-03-02T06:45:14.723Z,71.45
2024-03-02T06:47:43.726Z,70.96
2024-03-02T06:50:12.771Z,71.20
2024-03-02T06:52:47.541Z,71.93
2024-03-02T06:55:16.675Z,72.89
2024-03-02T06:57:46.013Z,73.13
2024-03-02T07:00:21.777Z,72.11
2024-03-02T07:02:51.194Z,72.14
2024-03-02T07:05:20.028Z,71.47
2024-03-02T07:07:49.061Z,71.32
2024-03-02T07:10:18.374Z,71.02
2024-03-02T07:12:47.033Z,71.29
2024-03-02T07:15:45.615Z,70.58
2024-03-02T07:18:19.436Z,70.27
2024-03-02T07:20:50.948Z,70.76
2024-03-02T07:23:21.791Z,70.09
2024-03-02T07:28:24.655Z,70.58
2024-03-02T07:31:00.050Z,70.07
2024-03-02T07:33:30.789Z,70.10
2024-03-02T07:36:02.035Z,70.38
2024-03-02T07:38:36.579Z,70.81
2024-03-02T07:41:06.107Z,71.07
2024-03-02T07:43:35.427Z,71.64
2024-03-02T07:46:05.359Z,71.73
2024-03-02T07:48:35.684Z,73.10
2024-03-02T07:51:05.272Z,72.27
2024-03-02T07:53:33.929Z,72.34
2024-03-02T07:56:05.587Z,71.58
2024-03-02T07:58:35.165Z,72.70
2024-03-02T08:01:04.144Z,71.81
2024-03-02T08:03:33.702Z,72.52
2024-03-02T08:06:03.837Z,72.82
2024-03-02T08:08:33.095Z,72.82
2024-03-02T08:11:02.295Z,74.54
2024-03-02T08:13:30.377Z,71.92
2024-03-02T08:15:59.508Z,73.53
2024-03-02T08:18:28.711Z,73.31
2024-03-02T08:20:57.556Z,73.41
2024-03-02T08:23:30.087Z,72.91
2024-03-02T08:25:59.198Z,74.42
2024-03-02T08:28:28.211Z,73.89
2024-03-02T08:30:57.294Z,74.20
2024-03-02T08:33:26.668Z,74.85
2024-03-02T08:35:59.800Z,74.54
2024-03-02T08:38:30.162Z,73.69
2024-03-02T08:40:59.241Z,76.49
2024-03-02T08:43:28.217Z,75.56
2024-03-02T08:45:59.355Z,72.29
2024-03-02T08:48:28.577Z,71.57
2024-03-02T08:50:57.489Z,72.10
2024-03-02T08:53:27.120Z,71.18
2024-03-02T08:56:02.839Z,70.86
2024-03-02T08:58:32.702Z,70.79
2024-03-02T09:01:01.867Z,71.78
2024-03-02T09:03:31.317Z,71.08
2024-03-02T09:06:00.495Z,71.87
2024-03-02T09:08:33.302Z,72.18
2024-03-02T09:11:04.137Z,72.49
2024-03-02T09:13:33.045Z,72.29
2024-03-02T09:16:01.770Z,72.02
2024-03-02T09:18:30.341Z,71.82
2024-03-02T09:20:59.129Z,72.46
2024-03-02T09:23:27.805Z,72.44
2024-03-02T09:26:02.637Z,71.94
2024-03-02T09:28:33.334Z,72.37
2024-03-02T09:31:03.308Z,72.09
2024-03-02T09:33:32.560Z,72.21
2024-03-02T09:36:01.870Z,73.77
2024-03-02T09:38:31.205Z,72.84
2024-03-02T09:41:00.327Z,73.47
2024-03-02T09:43:29.534Z,75.90
2024-03-02T09:46:03.108Z,74.14
2024-03-02T09:48:32.164Z,72.74
2024-03-02T09:51:02.779Z,70.72
2024-03-02T09:53:33.607Z,69.30
2024-03-02T09:56:02.644Z,69.57
2024-03-02T09:58:31.562Z,70.53
2024-03-02T10:01:00.200Z,69.87
2024-03-02T10:03:31.287Z,70.41
2024-03-02T10:06:21.212Z,70.93
2024-03-02T10:08:51.217Z,72.14
2024-03-02T10:11:30.706Z,71.56
2024-03-02T10:14:02.746Z,71.83
2024-03-02T10:16:31.318Z,71.33
2024-03-02T10:19:17.099Z,70.61
2024-03-02T10:21:52.201Z,72.08
2024-03-02T10:24:22.402Z,71.38
2024-03-02T10:26:51.117Z,71.45
2024-03-02T10:29:20.265Z,71.52
2024-03-02T10:31:49.320Z,70.96
2024-03-02T10:34:20.667Z,70.71
2024-03-02T10:36:50.276Z,71.91
2024-03-02T10:39:19.345Z,72.14
2024-03-02T10:41:52.000Z,71.46
2024-03-02T10:44:21.699Z,70.76
2024-03-02T10:46:52.195Z,71.78
2024-03-02T10:49:23.500Z,70.75
2024-03-02T10:51:52.948Z,71.70
2024-03-02T10:54:27.151Z,70.53
2024-03-02T10:56:56.604Z,71.32
2024-03-02T10:59:28.788Z,71.15
2024-03-02T11:02:05.512Z,70.10
2024-03-02T11:04:37.365Z,70.13
2024-03-02T11:07:07.269Z,70.45
2024-03-02T11:09:39.810Z,71.31
2024-03-02T11:12:12.481Z,70.93
2024-03-02T11:14:45.513Z,71.55
2024-03-02T11:17:17.030Z,70.27
2024-03-02T11:19:48.543Z,70.59
2024-03-02T11:22:17.498Z,71.50
2024-03-02T11:24:50.436Z,70.84
2024-03-02T11:27:44.530Z,70.67
2024-03-02T11:30:38.913Z,72.13
2024-03-02T11:33:09.801Z,71.29
2024-03-02T11:35:44.181Z,72.88
2024-03-02T11:38:14.893Z,71.89
2024-03-02T11:40:43.823Z,71.57
2024-03-02T11:43:19.724Z,71.61
2024-03-02T11:45:48.847Z,71.98
2024-03-02T11:48:17.932Z,71.37
2024-03-02T11:50:51.624Z,71.71
2024-03-02T11:53:21.462Z,72.30
2024-03-02T11:55:51.526Z,70.54
2024-03-02T11:58:22.035Z,71.84
2024-03-02T12:00:52.994Z,72.63
2024-03-02T12:03:27.813Z,72.39
2024-03-02T12:05:58.098Z,72.60
2024-03-02T12:08:27.171Z,72.29
2024-03-02T12:10:59.253Z,73.22
2024-03-02T12:13:28.297Z,72.20
2024-03-02T12:15:58.740Z,71.00
2024-03-02T12:18:28.113Z,70.76
2024-03-02T12:20:59.989Z,70.37
2024-03-02T12:23:28.894Z,70.96
2024-03-02T12:25:58.409Z,72.09
2024-03-02T12:28:27.497Z,71.08
2024-03-02T12:30:56.822Z,70.68
2024-03-02T12:33:26.410Z,70.50
2024-03-02T12:35:55.352Z,69.26
2024-03-02T12:38:26.945Z,68.63
2024-03-02T12:40:55.960Z,70.92
2024-03-02T12:43:25.173Z,70.19
2024-03-02T12:45:57.421Z,70.53
2024-03-02T12:48:26.877Z,69.00
2024-03-02T12:50:56.160Z,69.90
2024-03-02T12:53:26.494Z,69.36
2024-03-02T12:55:57.114Z,70.11
2024-03-02T12:58:25.879Z,68.83
2024-03-02T13:01:07.996Z,70.21
2024-03-02T13:03:41.907Z,69.53
2024-03-02T13:06:10.994Z,69.86
2024-03-02T13:08:40.711Z,70.83
2024-03-02T13:11:09.500Z,70.89
2024-03-02T13:13:38.717Z,70.89
2024-03-02T13:16:10.349Z,70.54
2024-03-02T13:18:39.203Z,70.30
2024-03-02T13:21:08.284Z,70.24
2024-03-02T13:23:37.021Z,70.10
2024-03-02T13:26:08.851Z,70.41
2024-03-02T13:28:37.612Z,70.37
2024-03-02T13:31:08.044Z,71.62
2024-03-02T13:33:37.100Z,70.60
2024-03-02T13:36:07.133Z,69.83
2024-03-02T13:38:35.782Z,70.41
2024-03-02T13:41:04.304Z,70.11
2024-03-02T13:43:36.142Z,72.15
2024-03-02T13:46:08.042Z,72.24
2024-03-02T13:48:37.865Z,71.34
2024-03-02T13:51:06.786Z,73.84
2024-03-02T13:53:39.443Z,71.57
2024-03-02T13:56:08.815Z,74.13
2024-03-02T13:58:38.689Z,72.73
2024-03-02T14:01:07.709Z,74.00
2024-03-02T14:03:37.125Z,74.92
2024-03-02T14:06:06.228Z,74.00
2024-03-02T14:08:37.074Z,74.38
2024-03-02T14:11:06.098Z,75.79
2024-03-02T14:13:35.066Z,75.49
2024-03-02T14:16:05.127Z,73.72
2024-03-02T14:18:34.117Z,74.60
2024-03-02T14:21:02.855Z,74.68
2024-03-02T14:23:31.761Z,74.28
2024-03-02T14:26:00.713Z,75.43
2024-03-02T14:28:44.008Z,75.03
2024-03-02T14:31:21.197Z,75.82
2024-03-02T14:33:50.805Z,76.28
2024-03-02T14:36:20.207Z,74.06
2024-03-02T14:38:49.284Z,74.23
2024-03-02T14:41:17.948Z,74.47
2024-03-02T14:43:47.181Z,74.22
2024-03-02T14:46:16.456Z,74.90
2024-03-02T14:48:48.162Z,73.40
2024-03-02T14:51:17.346Z,73.46
2024-03-02T14:53:49.206Z,73.89
2024-03-02T14:56:18.369Z,74.20
2024-03-02T14:58:47.094Z,74.19
2024-03-02T15:01:17.277Z,73.96
2024-03-02T15:03:47.849Z,74.43
2024-03-02T15:06:16.673Z,74.50
2024-03-02T15:08:47.470Z,73.95
2024-03-02T15:11:16.992Z,73.90
2024-03-02T15:13:46.259Z,74.40
2024-03-02T15:16:14.778Z,73.16
2024-03-02T15:18:43.698Z,72.51
2024-03-02T15:21:14.045Z,73.89
2024-03-02T15:23:43.034Z,74.11
2024-03-02T15:26:13.264Z,74.14
2024-03-02T15:28:41.925Z,73.94
2024-03-02T15:31:11.094Z,73.03
2024-03-02T15:33:40.159Z,74.79
2024-03-02T15:36:09.952Z,73.53
2024-03-02T15:38:42.733Z,72.76
2024-03-02T15:41:11.603Z,72.21
2024-03-02T15:43:42.654Z,71.74
2024-03-02T15:46:11.724Z,71.38
2024-03-02T15:48:41.487Z,71.56
2024-03-02T15:51:09.922Z,71.29
2024-03-02T15:53:38.737Z,70.87
2024-03-02T15:56:10.168Z,70.90
2024-03-02T15:58:39.466Z,69.88
2024-03-02T16:01:08.557Z,71.31
2024-03-02T16:03:38.338Z,71.63
2024-03-02T16:06:07.649Z,69.95
2024-03-02T16:08:36.636Z,70.20
2024-03-02T16:11:05.954Z,71.17
2024-03-02T16:13:37.106Z,71.35
2024-03-02T16:16:06.259Z,71.72
2024-03-02T16:18:35.717Z,71.46
2024-03-02T16:21:05.349Z,70.70
2024-03-02T16:23:35.030Z,70.14
2024-03-02T16:26:03.947Z,69.99
2024-03-02T16:28:32.805Z,70.25
2024-03-02T16:31:03.607Z,69.69
2024-03-02T16:33:32.627Z,69.41
2024-03-02T16:36:01.690Z,68.97
2024-03-02T16:38:31.030Z,69.57
2024-03-02T16:41:03.702Z,69.48
2024-03-02T16:43:33.180Z,69.45
2024-03-02T16:46:05.290Z,69.42
2024-03-02T16:48:34.399Z,69.34
2024-03-02T16:51:02.953Z,69.35
2024-03-02T16:53:31.708Z,69.08
2024-03-02T16:56:01.667Z,69.53
2024-03-02T16:58:30.180Z,69.13
2024-03-02T17:00:58.560Z,68.64
2024-03-02T17:03:29.161Z,68.88
2024-03-02T17:05:57.958Z,69.64
2024-03-02T17:08:26.794Z,68.77
2024-03-02T17:10:56.037Z,70.00
2024-03-02T17:13:25.173Z,69.26
2024-03-02T17:15:54.123Z,70.95
2024-03-02T17:18:22.519Z,70.78
2024-03-02T17:20:52.682Z,69.87
2024-03-02T17:23:22.369Z,70.19
2024-03-02T17:25:54.458Z,70.85
2024-03-02T17:28:23.952Z,71.62
2024-03-02T17:30:53.098Z,70.53
2024-03-02T17:33:22.303Z,70.03
2024-03-02T17:35:54.125Z,70.38
2024-03-02T17:38:23.672Z,70.67
2024-03-02T17:40:55.578Z,70.10
2024-03-02T17:43:25.386Z,70.36
2024-03-02T17:45:55.572Z,69.96
2024-03-02T17:48:24.856Z,69.62
2024-03-02T17:50:55.842Z,70.11
2024-03-02T17:53:25.026Z,69.91
2024-03-02T17:55:57.423Z,69.74
2024-03-02T17:58:26.991Z,70.53
2024-03-02T18:00:57.952Z,70.25
2024-03-02T18:03:27.183Z,71.26
2024-03-02T18:05:57.506Z,70.45
2024-03-02T18:08:39.376Z,70.35
2024-03-02T18:11:09.053Z,69.93
2024-03-02T18:13:38.073Z,71.57
2024-03-02T18:16:14.805Z,71.60
2024-03-02T18:18:44.431Z,71.79
2024-03-02T18:21:14.711Z,70.94
2024-03-02T18:23:44.002Z,71.33
2024-03-02T18:26:13.438Z,71.04
2024-03-02T18:28:42.445Z,70.88
2024-03-02T18:31:22.867Z,69.75
2024-03-02T18:33:52.307Z,70.27
2024-03-02T18:36:22.728Z,70.52
2024-03-02T18:38:52.900Z,70.56
2024-03-02T18:41:22.714Z,70.83
2024-03-02T18:43:52.305Z,70.70
2024-03-02T18:46:21.150Z,70.62
2024-03-02T18:51:28.118Z,71.40
2024-03-02T18:54:00.934Z,71.43
2024-03-02T18:56:30.114Z,71.65
2024-03-02T18:59:06.016Z,72.08
2024-03-02T19:01:37.964Z,71.54
2024-03-02T19:04:07.564Z,71.16
2024-03-02T19:06:38.696Z,70.50
2024-03-02T19:09:08.329Z,70.99
2024-03-02T19:11:37.370Z,72.18
2024-03-02T19:14:06.583Z,72.13
2024-03-02T19:16:37.366Z,72.31
2024-03-02T19:19:06.744Z,71.28
2024-03-02T19:21:36.343Z,71.03
2024-03-02T19:24:09.739Z,71.91
2024-03-02T19:26:39.226Z,72.25
2024-03-02T19:29:12.565Z,70.21
2024-03-02T19:31:44.515Z,69.43
2024-03-02T19:34:13.329Z,70.96
2024-03-02T19:36:43.013Z,71.07
2024-03-02T19:39:13.869Z,71.55
2024-03-02T19:41:43.252Z,71.08
2024-03-02T19:44:12.412Z,71.62
2024-03-02T19:46:45.405Z,70.89
2024-03-02T19:49:16.621Z,71.68
2024-03-02T19:51:45.753Z,71.07
2024-03-02T19:54:19.106Z,71.48
2024-03-02T19:56:47.596Z,71.57
2024-03-02T19:59:16.504Z,71.58
2024-03-02T20:01:46.035Z,71.41
2024-03-02T20:04:15.250Z,72.09
2024-03-02T20:06:45.160Z,71.73
2024-03-02T20:09:14.528Z,71.06
2024-03-02T20:11:49.492Z,71.05
2024-03-02T20:14:18.178Z,71.15
2024-03-02T20:16:47.072Z,71.34
2024-03-02T20:19:18.282Z,70.37
2024-03-02T20:21:48.242Z,71.13
2024-03-02T20:24:20.774Z,70.98
2024-03-02T20:26:52.117Z,70.24
2024-03-02T20:29:33.804Z,72.04
2024-03-02T20:32:03.309Z,71.51
2024-03-02T20:34:31.781Z,72.29
2024-03-02T20:37:07.880Z,72.61
2024-03-02T20:39:37.983Z,71.89
2024-03-02T20:42:08.614Z,70.71
2024-03-02T20:44:37.718Z,71.53
2024-03-02T20:47:09.551Z,71.86
2024-03-02T20:49:39.107Z,72.76
2024-03-02T20:52:08.919Z,72.23
2024-03-02T20:54:38.828Z,69.98
2024-03-02T20:57:13.813Z,70.11
2024-03-02T20:59:43.188Z,70.93
2024-03-02T21:02:11.956Z,70.47
2024-03-02T21:04:43.684Z,70.73
2024-03-02T21:07:13.451Z,70.46
2024-03-02T21:09:42.790Z,70.39
2024-03-02T21:12:18.773Z,70.73
2024-03-02T21:14:48.276Z,71.13
2024-03-02T21:17:17.202Z,71.59
2024-03-02T21:19:45.886Z,71.28
2024-03-02T21:22:15.113Z,70.96
2024-03-02T21:24:47.104Z,69.95
2024-03-02T21:27:19.254Z,70.09
2024-03-02T21:29:50.860Z,70.15
2024-03-02T21:32:19.942Z,69.78
2024-03-02T21:34:49.240Z,70.02
2024-03-02T21:37:18.181Z,70.19
2024-03-02T21:39:47.737Z,69.48
2024-03-02T21:42:16.482Z,70.57
2024-03-02T21:44:45.422Z,69.75
2024-03-02T21:47:17.681Z,70.38
2024-03-02T21:49:47.326Z,70.17
2024-03-02T21:52:16.443Z,70.09
2024-03-02T21:54:50.261Z,70.01
2024-03-02T21:57:21.247Z,70.15
2024-03-02T21:59:49.942Z,70.65
2024-03-02T22:02:20.570Z,70.16
2024-03-02T22:04:50.025Z,70.74
2024-03-02T22:07:18.788Z,69.64
2024-03-02T22:09:47.517Z,71.11
2024-03-02T22:12:19.348Z,71.38
2024-03-02T22:14:48.012Z,71.30
2024-03-02T22:17:16.778Z,71.17
2024-03-02T22:19:47.066Z,70.83
2024-03-02T22:22:16.212Z,71.69
2024-03-02T22:24:45.019Z,70.33
2024-03-02T22:27:17.675Z,71.12
2024-03-02T22:29:46.798Z,71.11
2024-03-02T22:32:15.357Z,71.60
2024-03-02T22:34:44.008Z,72.42
2024-03-02T22:37:19.040Z,72.58
2024-03-02T22:39:47.868Z,72.35
2024-03-02T22:42:16.663Z,72.95
2024-03-02T22:44:45.167Z,71.83
2024-03-02T22:47:14.165Z,72.47
2024-03-02T22:49:42.931Z,71.93
2024-03-02T22:52:11.406Z,71.47
2024-03-02T22:54:41.467Z,73.32
2024-03-02T22:57:18.158Z,72.04
2024-03-02T22:59:50.020Z,72.46
2024-03-02T23:02:19.573Z,71.98
2024-03-02T23:04:49.297Z,72.20
2024-03-02T23:07:20.594Z,72.00
2024-03-02T23:09:51.099Z,71.61
2024-03-02T23:12:19.847Z,71.04
2024-03-02T23:14:49.025Z,70.13
2024-03-02T23:17:18.097Z,70.25
2024-03-02T23:19:46.784Z,71.18
2024-03-02T23:22:15.783Z,71.49
2024-03-02T23:24:45.706Z,70.71
2024-03-02T23:27:17.120Z,70.07
2024-03-02T23:29:46.161Z,71.81
2024-03-02T23:32:17.779Z,72.28
2024-03-02T23:34:46.846Z,72.77
2024-03-02T23:37:16.099Z,76.97
2024-03-02T23:40:07.694Z,76.52
2024-03-02T23:42:38.281Z,75.68
2024-03-02T23:45:07.163Z,74.65
2024-03-02T23:47:35.950Z,74.82
2024-03-02T23:50:05.099Z,74.75
2024-03-02T23:52:34.114Z,75.76
2024-03-02T23:55:04.842Z,75.75
2024-03-02T23:57:35.029Z,75.30
